Terminal Aerodrome Forecast
Issued by NWS

Home | Current Version | Previous Version | Text Only | Print | Product List | Glossary On
Versions: 1 2 3 4 5 6 7 8 9 10 11 12 13 14 15 16 17 18 19 20 21 22 23
932
FTUS43 KGRB 080520
TAFAUW
TAF
KAUW 080520Z 0806/0906 27014G24KT P6SM -SN OVC024
     FM081000 28012G22KT 4SM -SN BKN025
     FM081600 29013G23KT 3SM -SN BKN025
     FM082200 30009G15KT P6SM -SN BKN026=

USA.gov is the U.S. government's official web portal to all federal, state and local government web resources and services.